sensor_id;sensor_type;location;lat;lon;timestamp;temperature;humidity
12704;DHT22;6416;52.182;7.650;2023-02-01T00:01:42;7.90;78.10
12704;DHT22;6416;52.182;7.650;2023-02-01T00:04:08;7.90;78.00
12704;DHT22;6416;52.182;7.650;2023-02-01T00:06:33;7.90;78.10
12704;DHT22;6416;52.182;7.650;2023-02-01T00:08:59;8.00;78.10
12704;DHT22;6416;52.182;7.650;2023-02-01T00:11:25;8.00;78.00
12704;DHT22;6416;52.182;7.650;2023-02-01T00:13:50;8.00;77.90
12704;DHT22;6416;52.182;7.650;2023-02-01T00:16:19;8.00;77.90
12704;DHT22;6416;52.182;7.650;2023-02-01T00:18:46;8.00;78.00
12704;DHT22;6416;52.182;7.650;2023-02-01T00:21:14;8.00;77.90
12704;DHT22;6416;52.182;7.650;2023-02-01T00:23:40;8.00;77.90
12704;DHT22;6416;52.182;7.650;2023-02-01T00:26:10;8.00;77.80
12704;DHT22;6416;52.182;7.650;2023-02-01T00:28:38;8.00;77.90
12704;DHT22;6416;52.182;7.650;2023-02-01T00:31:04;8.00;77.90
12704;DHT22;6416;52.182;7.650;2023-02-01T00:33:31;8.00;77.60
12704;DHT22;6416;52.182;7.650;2023-02-01T00:36:01;8.10;77.80
12704;DHT22;6416;52.182;7.650;2023-02-01T00:38:27;8.10;77.50
12704;DHT22;6416;52.182;7.650;2023-02-01T00:40:53;8.10;77.60
12704;DHT22;6416;52.182;7.650;2023-02-01T00:43:19;8.10;77.60
12704;DHT22;6416;52.182;7.650;2023-02-01T00:45:48;8.10;77.70
12704;DHT22;6416;52.182;7.650;2023-02-01T00:48:13;8.10;77.50
12704;DHT22;6416;52.182;7.650;2023-02-01T00:50:42;8.10;77.50
12704;DHT22;6416;52.182;7.650;2023-02-01T00:53:09;8.10;77.20
12704;DHT22;6416;52.182;7.650;2023-02-01T00:55:34;8.10;77.40
12704;DHT22;6416;52.182;7.650;2023-02-01T00:58:00;8.10;77.30
12704;DHT22;6416;52.182;7.650;2023-02-01T01:00:25;8.10;77.30
12704;DHT22;6416;52.182;7.650;2023-02-01T01:02:51;8.10;77.30
12704;DHT22;6416;52.182;7.650;2023-02-01T01:05:16;8.10;77.30
12704;DHT22;6416;52.182;7.650;2023-02-01T01:07:42;8.10;77.50
12704;DHT22;6416;52.182;7.650;2023-02-01T01:10:07;8.10;77.50
12704;DHT22;6416;52.182;7.650;2023-02-01T01:12:33;8.10;77.20
12704;DHT22;6416;52.182;7.650;2023-02-01T01:14:59;8.10;77.30
12704;DHT22;6416;52.182;7.650;2023-02-01T01:17:24;8.10;77.40
12704;DHT22;6416;52.182;7.650;2023-02-01T01:19:49;8.10;77.50
12704;DHT22;6416;52.182;7.650;2023-02-01T01:22:15;8.20;77.60
12704;DHT22;6416;52.182;7.650;2023-02-01T01:24:40;8.20;77.40
12704;DHT22;6416;52.182;7.650;2023-02-01T01:27:06;8.20;77.50
12704;DHT22;6416;52.182;7.650;2023-02-01T01:29:31;8.20;77.50
12704;DHT22;6416;52.182;7.650;2023-02-01T01:31:57;8.20;77.40
12704;DHT22;6416;52.182;7.650;2023-02-01T01:34:22;8.20;77.60
12704;DHT22;6416;52.182;7.650;2023-02-01T01:36:48;8.20;77.60
12704;DHT22;6416;52.182;7.650;2023-02-01T01:39:13;8.20;77.60
12704;DHT22;6416;52.182;7.650;2023-02-01T01:41:39;8.20;77.50
12704;DHT22;6416;52.182;7.650;2023-02-01T01:44:05;8.20;77.50
12704;DHT22;6416;52.182;7.650;2023-02-01T01:51:51;8.30;77.60
12704;DHT22;6416;52.182;7.650;2023-02-01T01:54:21;8.30;77.50
12704;DHT22;6416;52.182;7.650;2023-02-01T01:56:51;8.40;77.70
12704;DHT22;6416;52.182;7.650;2023-02-01T01:59:19;8.40;77.80
12704;DHT22;6416;52.182;7.650;2023-02-01T02:01:46;8.40;77.70
12704;DHT22;6416;52.182;7.650;2023-02-01T02:04:11;8.40;77.80
12704;DHT22;6416;52.182;7.650;2023-02-01T02:06:42;8.40;77.70
12704;DHT22;6416;52.182;7.650;2023-02-01T02:09:08;8.50;77.70
12704;DHT22;6416;52.182;7.650;2023-02-01T02:11:34;8.50;77.70
12704;DHT22;6416;52.182;7.650;2023-02-01T02:13:59;8.50;77.80
12704;DHT22;6416;52.182;7.650;2023-02-01T02:19:30;8.50;77.00
12704;DHT22;6416;52.182;7.650;2023-02-01T02:24:41;8.60;77.60
12704;DHT22;6416;52.182;7.650;2023-02-01T02:40:48;8.60;77.40
12704;DHT22;6416;52.182;7.650;2023-02-01T02:43:30;8.60;77.00
12704;DHT22;6416;52.182;7.650;2023-02-01T02:46:01;8.60;77.00
12704;DHT22;6416;52.182;7.650;2023-02-01T02:48:59;8.60;77.40
12704;DHT22;6416;52.182;7.650;2023-02-01T02:51:37;8.60;76.70
12704;DHT22;6416;52.182;7.650;2023-02-01T02:54:32;8.60;77.00
12704;DHT22;6416;52.182;7.650;2023-02-01T02:57:00;8.60;76.70
12704;DHT22;6416;52.182;7.650;2023-02-01T02:59:28;8.60;77.30
12704;DHT22;6416;52.182;7.650;2023-02-01T03:01:55;8.60;77.30
12704;DHT22;6416;52.182;7.650;2023-02-01T03:04:20;8.60;77.40
12704;DHT22;6416;52.182;7.650;2023-02-01T03:06:46;8.60;77.10
12704;DHT22;6416;52.182;7.650;2023-02-01T03:09:26;8.60;77.40
12704;DHT22;6416;52.182;7.650;2023-02-01T03:11:57;8.60;76.90
12704;DHT22;6416;52.182;7.650;2023-02-01T03:14:26;8.60;77.00
12704;DHT22;6416;52.182;7.650;2023-02-01T03:16:59;8.60;76.80
12704;DHT22;6416;52.182;7.650;2023-02-01T03:19:37;8.60;76.70
12704;DHT22;6416;52.182;7.650;2023-02-01T03:22:12;8.50;76.40
12704;DHT22;6416;52.182;7.650;2023-02-01T03:24:48;8.50;76.40
12704;DHT22;6416;52.182;7.650;2023-02-01T03:32:42;8.50;76.30
12704;DHT22;6416;52.182;7.650;2023-02-01T03:35:08;8.50;76.70
12704;DHT22;6416;52.182;7.650;2023-02-01T03:37:34;8.50;77.00
12704;DHT22;6416;52.182;7.650;2023-02-01T03:40:02;8.50;76.80
12704;DHT22;6416;52.182;7.650;2023-02-01T03:42:46;8.50;77.00
12704;DHT22;6416;52.182;7.650;2023-02-01T03:45:23;8.50;76.80
12704;DHT22;6416;52.182;7.650;2023-02-01T03:47:54;8.50;76.90
12704;DHT22;6416;52.182;7.650;2023-02-01T03:50:22;8.50;77.00
12704;DHT22;6416;52.182;7.650;2023-02-01T03:52:58;8.50;77.00
12704;DHT22;6416;52.182;7.650;2023-02-01T03:55:25;8.50;76.80
12704;DHT22;6416;52.182;7.650;2023-02-01T03:57:57;8.50;76.90
12704;DHT22;6416;52.182;7.650;2023-02-01T04:00:25;8.50;77.10
12704;DHT22;6416;52.182;7.650;2023-02-01T04:02:51;8.60;77.20
12704;DHT22;6416;52.182;7.650;2023-02-01T04:05:17;8.60;77.40
12704;DHT22;6416;52.182;7.650;2023-02-01T04:07:43;8.60;77.20
12704;DHT22;6416;52.182;7.650;2023-02-01T04:10:09;8.70;77.20
12704;DHT22;6416;52.182;7.650;2023-02-01T04:12:36;8.70;77.30
12704;DHT22;6416;52.182;7.650;2023-02-01T04:15:01;8.70;77.00
12704;DHT22;6416;52.182;7.650;2023-02-01T04:17:27;8.70;77.10
12704;DHT22;6416;52.182;7.650;2023-02-01T04:19:52;8.70;76.90
12704;DHT22;6416;52.182;7.650;2023-02-01T04:22:18;8.80;77.00
12704;DHT22;6416;52.182;7.650;2023-02-01T04:24:43;8.80;77.20
12704;DHT22;6416;52.182;7.650;2023-02-01T04:27:09;8.80;77.10
12704;DHT22;6416;52.182;7.650;2023-02-01T04:29:34;8.80;77.10
12704;DHT22;6416;52.182;7.650;2023-02-01T04:32:00;8.80;77.20
12704;DHT22;6416;52.182;7.650;2023-02-01T04:34:25;8.90;77.00
12704;DHT22;6416;52.182;7.650;2023-02-01T04:36:51;8.90;77.30
12704;DHT22;6416;52.182;7.650;2023-02-01T04:39:17;8.90;77.30
12704;DHT22;6416;52.182;7.650;2023-02-01T04:41:43;8.90;77.20
12704;DHT22;6416;52.182;7.650;2023-02-01T04:44:13;8.90;77.20
12704;DHT22;6416;52.182;7.650;2023-02-01T04:46:40;8.90;77.00
12704;DHT22;6416;52.182;7.650;2023-02-01T04:49:05;8.90;77.30
12704;DHT22;6416;52.182;7.650;2023-02-01T04:51:30;8.90;77.40
12704;DHT22;6416;52.182;7.650;2023-02-01T04:53:56;8.90;77.50
12704;DHT22;6416;52.182;7.650;2023-02-01T04:56:22;8.90;77.40
12704;DHT22;6416;52.182;7.650;2023-02-01T04:58:47;8.90;77.40
12704;DHT22;6416;52.182;7.650;2023-02-01T05:01:13;8.90;77.40
12704;DHT22;6416;52.182;7.650;2023-02-01T05:03:38;8.90;77.40
12704;DHT22;6416;52.182;7.650;2023-02-01T05:06:04;8.90;77.40
12704;DHT22;6416;52.182;7.650;2023-02-01T05:08:29;8.90;77.50
12704;DHT22;6416;52.182;7.650;2023-02-01T05:10:55;8.90;77.60
12704;DHT22;6416;52.182;7.650;2023-02-01T05:13:20;8.90;77.50
12704;DHT22;6416;52.182;7.650;2023-02-01T05:15:46;9.00;77.70
12704;DHT22;6416;52.182;7.650;2023-02-01T05:18:12;9.00;77.70
12704;DHT22;6416;52.182;7.650;2023-02-01T05:20:37;9.00;77.40
12704;DHT22;6416;52.182;7.650;2023-02-01T05:23:03;8.90;77.30
12704;DHT22;6416;52.182;7.650;2023-02-01T05:25:28;8.90;77.40
12704;DHT22;6416;52.182;7.650;2023-02-01T05:27:54;8.90;77.40
12704;DHT22;6416;52.182;7.650;2023-02-01T05:30:20;8.90;77.30
12704;DHT22;6416;52.182;7.650;2023-02-01T05:32:45;8.90;77.40
12704;DHT22;6416;52.182;7.650;2023-02-01T05:35:14;8.90;77.40
12704;DHT22;6416;52.182;7.650;2023-02-01T05:37:39;8.90;77.60
12704;DHT22;6416;52.182;7.650;2023-02-01T05:40:05;8.90;77.30
12704;DHT22;6416;52.182;7.650;2023-02-01T05:42:31;8.90;77.40
12704;DHT22;6416;52.182;7.650;2023-02-01T05:44:56;8.90;77.70
12704;DHT22;6416;52.182;7.650;2023-02-01T05:47:22;8.90;77.60
12704;DHT22;6416;52.182;7.650;2023-02-01T05:49:47;8.90;77.60
12704;DHT22;6416;52.182;7.650;2023-02-01T05:52:12;8.90;78.20
12704;DHT22;6416;52.182;7.650;2023-02-01T05:54:38;8.90;77.40
12704;DHT22;6416;52.182;7.650;2023-02-01T05:57:03;9.00;77.40
12704;DHT22;6416;52.182;7.650;2023-02-01T05:59:29;9.00;77.40
12704;DHT22;6416;52.182;7.650;2023-02-01T06:01:54;9.00;77.50
12704;DHT22;6416;52.182;7.650;2023-02-01T06:04:20;9.00;77.30
12704;DHT22;6416;52.182;7.650;2023-02-01T06:06:45;9.00;77.50
12704;DHT22;6416;52.182;7.650;2023-02-01T06:09:11;9.00;77.60
12704;DHT22;6416;52.182;7.650;2023-02-01T06:11:36;9.00;78.40
12704;DHT22;6416;52.182;7.650;2023-02-01T06:14:02;9.00;77.70
12704;DHT22;6416;52.182;7.650;2023-02-01T06:16:27;9.00;78.40
12704;DHT22;6416;52.182;7.650;2023-02-01T06:18:53;9.00;77.50
12704;DHT22;6416;52.182;7.650;2023-02-01T06:21:18;9.00;77.60
12704;DHT22;6416;52.182;7.650;2023-02-01T06:23:43;9.00;77.40
12704;DHT22;6416;52.182;7.650;2023-02-01T06:26:09;9.00;77.60
12704;DHT22;6416;52.182;7.650;2023-02-01T06:28:35;9.10;77.50
12704;DHT22;6416;52.182;7.650;2023-02-01T06:31:05;9.10;77.50
12704;DHT22;6416;52.182;7.650;2023-02-01T06:33:30;9.10;77.30
12704;DHT22;6416;52.182;7.650;2023-02-01T06:36:00;9.10;77.50
12704;DHT22;6416;52.182;7.650;2023-02-01T06:38:26;9.10;77.50
12704;DHT22;6416;52.182;7.650;2023-02-01T06:40:53;9.10;77.50
12704;DHT22;6416;52.182;7.650;2023-02-01T06:43:19;9.20;77.60
12704;DHT22;6416;52.182;7.650;2023-02-01T06:45:44;9.20;77.50
12704;DHT22;6416;52.182;7.650;2023-02-01T06:48:10;9.20;77.50
12704;DHT22;6416;52.182;7.650;2023-02-01T06:50:35;9.20;77.30
12704;DHT22;6416;52.182;7.650;2023-02-01T06:53:01;9.20;77.30
12704;DHT22;6416;52.182;7.650;2023-02-01T06:55:26;9.20;77.20
12704;DHT22;6416;52.182;7.650;2023-02-01T06:57:55;9.30;77.10
12704;DHT22;6416;52.182;7.650;2023-02-01T07:00:24;9.30;77.10
12704;DHT22;6416;52.182;7.650;2023-02-01T07:02:50;9.30;77.20
12704;DHT22;6416;52.182;7.650;2023-02-01T07:05:16;9.30;77.30
12704;DHT22;6416;52.182;7.650;2023-02-01T07:07:42;9.30;77.30
12704;DHT22;6416;52.182;7.650;2023-02-01T07:10:08;9.30;77.30
12704;DHT22;6416;52.182;7.650;2023-02-01T07:12:33;9.30;77.40
12704;DHT22;6416;52.182;7.650;2023-02-01T07:14:59;9.30;77.20
12704;DHT22;6416;52.182;7.650;2023-02-01T07:17:24;9.30;77.20
12704;DHT22;6416;52.182;7.650;2023-02-01T07:19:50;9.40;77.30
12704;DHT22;6416;52.182;7.650;2023-02-01T07:22:18;9.40;77.10
12704;DHT22;6416;52.182;7.650;2023-02-01T07:24:44;9.40;76.80
12704;DHT22;6416;52.182;7.650;2023-02-01T07:27:09;9.40;77.10
12704;DHT22;6416;52.182;7.650;2023-02-01T07:29:35;9.40;77.00
12704;DHT22;6416;52.182;7.650;2023-02-01T07:32:00;9.40;77.20
12704;DHT22;6416;52.182;7.650;2023-02-01T07:34:26;9.40;77.10
12704;DHT22;6416;52.182;7.650;2023-02-01T07:36:51;9.40;77.10
12704;DHT22;6416;52.182;7.650;2023-02-01T07:39:17;9.40;77.20
12704;DHT22;6416;52.182;7.650;2023-02-01T07:41:42;9.40;77.20
12704;DHT22;6416;52.182;7.650;2023-02-01T07:44:08;9.40;77.20
12704;DHT22;6416;52.182;7.650;2023-02-01T07:46:33;9.50;77.30
12704;DHT22;6416;52.182;7.650;2023-02-01T07:48:59;9.40;76.90
12704;DHT22;6416;52.182;7.650;2023-02-01T07:51:24;9.50;77.30
12704;DHT22;6416;52.182;7.650;2023-02-01T07:53:49;9.50;77.10
12704;DHT22;6416;52.182;7.650;2023-02-01T07:56:17;9.50;77.10
12704;DHT22;6416;52.182;7.650;2023-02-01T07:58:46;9.50;76.80
12704;DHT22;6416;52.182;7.650;2023-02-01T08:01:16;9.50;77.00
12704;DHT22;6416;52.182;7.650;2023-02-01T08:03:42;9.50;77.00
12704;DHT22;6416;52.182;7.650;2023-02-01T08:06:07;9.50;77.10
12704;DHT22;6416;52.182;7.650;2023-02-01T08:08:33;9.50;76.90
12704;DHT22;6416;52.182;7.650;2023-02-01T08:11:00;9.60;77.10
12704;DHT22;6416;52.182;7.650;2023-02-01T08:13:26;9.60;77.10
12704;DHT22;6416;52.182;7.650;2023-02-01T08:15:51;9.60;77.20
12704;DHT22;6416;52.182;7.650;2023-02-01T08:18:17;9.60;77.20
12704;DHT22;6416;52.182;7.650;2023-02-01T08:20:43;9.60;77.30
12704;DHT22;6416;52.182;7.650;2023-02-01T08:23:09;9.60;77.20
12704;DHT22;6416;52.182;7.650;2023-02-01T08:25:34;9.70;77.20
12704;DHT22;6416;52.182;7.650;2023-02-01T08:27:59;9.70;77.30
12704;DHT22;6416;52.182;7.650;2023-02-01T08:30:25;9.70;77.20
12704;DHT22;6416;52.182;7.650;2023-02-01T08:32:50;9.80;77.20
12704;DHT22;6416;52.182;7.650;2023-02-01T08:35:16;9.80;77.30
12704;DHT22;6416;52.182;7.650;2023-02-01T08:37:41;9.80;77.20
12704;DHT22;6416;52.182;7.650;2023-02-01T08:40:07;9.80;77.20
12704;DHT22;6416;52.182;7.650;2023-02-01T08:42:33;9.80;77.00
12704;DHT22;6416;52.182;7.650;2023-02-01T08:44:58;9.80;76.90
12704;DHT22;6416;52.182;7.650;2023-02-01T08:47:24;9.90;77.00
12704;DHT22;6416;52.182;7.650;2023-02-01T08:49:49;9.90;76.90
12704;DHT22;6416;52.182;7.650;2023-02-01T08:52:15;9.90;76.70
12704;DHT22;6416;52.182;7.650;2023-02-01T08:54:40;10.00;75.80
12704;DHT22;6416;52.182;7.650;2023-02-01T08:57:06;10.00;75.80
12704;DHT22;6416;52.182;7.650;2023-02-01T08:59:31;10.10;75.80
12704;DHT22;6416;52.182;7.650;2023-02-01T09:01:57;10.00;75.80
12704;DHT22;6416;52.182;7.650;2023-02-01T09:04:22;10.00;75.70
12704;DHT22;6416;52.182;7.650;2023-02-01T09:06:48;10.10;75.50
12704;DHT22;6416;52.182;7.650;2023-02-01T09:09:13;10.10;75.70
12704;DHT22;6416;52.182;7.650;2023-02-01T09:11:39;10.10;75.70
12704;DHT22;6416;52.182;7.650;2023-02-01T09:14:04;10.20;76.00
12704;DHT22;6416;52.182;7.650;2023-02-01T09:16:30;10.20;76.30
12704;DHT22;6416;52.182;7.650;2023-02-01T09:18:55;10.30;76.70
12704;DHT22;6416;52.182;7.650;2023-02-01T09:21:20;10.50;77.60
12704;DHT22;6416;52.182;7.650;2023-02-01T09:23:46;10.60;77.40
12704;DHT22;6416;52.182;7.650;2023-02-01T09:26:11;10.70;76.80
12704;DHT22;6416;52.182;7.650;2023-02-01T09:28:37;10.90;76.70
12704;DHT22;6416;52.182;7.650;2023-02-01T09:31:03;11.00;75.90
12704;DHT22;6416;52.182;7.650;2023-02-01T09:33:29;11.00;75.80
12704;DHT22;6416;52.182;7.650;2023-02-01T09:35:58;11.10;75.40
12704;DHT22;6416;52.182;7.650;2023-02-01T09:38:25;11.10;74.80
12704;DHT22;6416;52.182;7.650;2023-02-01T09:40:50;11.10;75.30
12704;DHT22;6416;52.182;7.650;2023-02-01T09:43:25;11.20;75.30
12704;DHT22;6416;52.182;7.650;2023-02-01T09:46:22;11.20;74.70
12704;DHT22;6416;52.182;7.650;2023-02-01T09:48:53;11.30;73.70
12704;DHT22;6416;52.182;7.650;2023-02-01T09:51:28;11.30;74.60
12704;DHT22;6416;52.182;7.650;2023-02-01T09:56:59;11.30;73.90
12704;DHT22;6416;52.182;7.650;2023-02-01T10:01:59;11.30;74.10
12704;DHT22;6416;52.182;7.650;2023-02-01T10:04:25;11.30;74.50
12704;DHT22;6416;52.182;7.650;2023-02-01T10:15:17;11.30;72.70
12704;DHT22;6416;52.182;7.650;2023-02-01T10:17:51;11.30;73.10
12704;DHT22;6416;52.182;7.650;2023-02-01T10:26:21;11.30;73.30
12704;DHT22;6416;52.182;7.650;2023-02-01T10:28:54;11.30;73.30
12704;DHT22;6416;52.182;7.650;2023-02-01T10:31:25;11.30;73.20
12704;DHT22;6416;52.182;7.650;2023-02-01T10:33:55;11.30;73.40
12704;DHT22;6416;52.182;7.650;2023-02-01T10:36:31;11.30;73.80
12704;DHT22;6416;52.182;7.650;2023-02-01T10:39:02;11.30;73.00
12704;DHT22;6416;52.182;7.650;2023-02-01T10:41:36;11.30;74.50
12704;DHT22;6416;52.182;7.650;2023-02-01T10:44:15;11.30;72.80
12704;DHT22;6416;52.182;7.650;2023-02-01T10:46:41;11.30;73.30
12704;DHT22;6416;52.182;7.650;2023-02-01T10:49:13;11.30;73.60
12704;DHT22;6416;52.182;7.650;2023-02-01T10:54:35;11.30;72.70
12704;DHT22;6416;52.182;7.650;2023-02-01T10:57:01;11.30;73.20
12704;DHT22;6416;52.182;7.650;2023-02-01T10:59:29;11.30;73.40
12704;DHT22;6416;52.182;7.650;2023-02-01T11:02:00;11.30;73.30
12704;DHT22;6416;52.182;7.650;2023-02-01T11:04:26;11.30;72.50
12704;DHT22;6416;52.182;7.650;2023-02-01T11:09:29;11.30;72.60
12704;DHT22;6416;52.182;7.650;2023-02-01T11:11:58;11.20;72.70
12704;DHT22;6416;52.182;7.650;2023-02-01T11:16:54;11.20;72.80
12704;DHT22;6416;52.182;7.650;2023-02-01T11:19:19;11.10;72.70
12704;DHT22;6416;52.182;7.650;2023-02-01T11:21:49;11.00;72.90
12704;DHT22;6416;52.182;7.650;2023-02-01T11:24:35;11.00;72.80
12704;DHT22;6416;52.182;7.650;2023-02-01T11:27:11;10.90;73.00
12704;DHT22;6416;52.182;7.650;2023-02-01T11:29:40;10.80;72.90
12704;DHT22;6416;52.182;7.650;2023-02-01T11:32:08;10.80;73.30
12704;DHT22;6416;52.182;7.650;2023-02-01T11:34:46;10.70;73.10
12704;DHT22;6416;52.182;7.650;2023-02-01T11:37:35;10.60;73.30
12704;DHT22;6416;52.182;7.650;2023-02-01T11:40:12;10.60;73.40
12704;DHT22;6416;52.182;7.650;2023-02-01T11:42:59;10.50;73.90
12704;DHT22;6416;52.182;7.650;2023-02-01T11:45:29;10.50;74.10
12704;DHT22;6416;52.182;7.650;2023-02-01T11:47:56;10.40;74.40
12704;DHT22;6416;52.182;7.650;2023-02-01T12:01:43;10.30;74.80
12704;DHT22;6416;52.182;7.650;2023-02-01T12:09:58;10.20;75.50
12704;DHT22;6416;52.182;7.650;2023-02-01T12:12:44;10.20;75.60
12704;DHT22;6416;52.182;7.650;2023-02-01T12:17:54;10.10;75.80
12704;DHT22;6416;52.182;7.650;2023-02-01T12:23:26;10.10;76.20
12704;DHT22;6416;52.182;7.650;2023-02-01T12:40:00;10.10;76.90
12704;DHT22;6416;52.182;7.650;2023-02-01T12:42:41;10.10;77.10
12704;DHT22;6416;52.182;7.650;2023-02-01T12:45:25;10.20;76.80
12704;DHT22;6416;52.182;7.650;2023-02-01T12:50:47;10.20;77.10
12704;DHT22;6416;52.182;7.650;2023-02-01T12:53:24;10.30;77.60
12704;DHT22;6416;52.182;7.650;2023-02-01T12:55:54;10.30;77.70
12704;DHT22;6416;52.182;7.650;2023-02-01T12:58:27;10.30;77.70
12704;DHT22;6416;52.182;7.650;2023-02-01T13:03:57;10.40;77.70
12704;DHT22;6416;52.182;7.650;2023-02-01T13:06:41;10.40;77.90
12704;DHT22;6416;52.182;7.650;2023-02-01T13:11:55;10.50;77.80
12704;DHT22;6416;52.182;7.650;2023-02-01T13:22:30;10.60;77.70
12704;DHT22;6416;52.182;7.650;2023-02-01T13:25:03;10.70;77.80
12704;DHT22;6416;52.182;7.650;2023-02-01T13:27:30;10.70;77.50
12704;DHT22;6416;52.182;7.650;2023-02-01T13:38:44;10.70;76.90
12704;DHT22;6416;52.182;7.650;2023-02-01T13:41:24;10.70;76.80
12704;DHT22;6416;52.182;7.650;2023-02-01T13:43:53;10.60;77.00
12704;DHT22;6416;52.182;7.650;2023-02-01T13:46:20;10.60;77.00
12704;DHT22;6416;52.182;7.650;2023-02-01T13:48:49;10.60;77.30
12704;DHT22;6416;52.182;7.650;2023-02-01T13:51:16;10.60;77.30
12704;DHT22;6416;52.182;7.650;2023-02-01T13:53:48;10.60;77.40
12704;DHT22;6416;52.182;7.650;2023-02-01T13:56:18;10.60;77.50
12704;DHT22;6416;52.182;7.650;2023-02-01T13:58:46;10.50;77.50
12704;DHT22;6416;52.182;7.650;2023-02-01T14:03:57;10.50;77.50
12704;DHT22;6416;52.182;7.650;2023-02-01T14:09:15;10.50;77.70
12704;DHT22;6416;52.182;7.650;2023-02-01T14:11:54;10.50;77.50
12704;DHT22;6416;52.182;7.650;2023-02-01T14:19:27;10.40;77.40
12704;DHT22;6416;52.182;7.650;2023-02-01T14:21:54;10.40;77.30
12704;DHT22;6416;52.182;7.650;2023-02-01T14:24:25;10.40;77.40
12704;DHT22;6416;52.182;7.650;2023-02-01T14:26:53;10.40;77.00
12704;DHT22;6416;52.182;7.650;2023-02-01T14:32:17;10.30;76.60
12704;DHT22;6416;52.182;7.650;2023-02-01T14:42:43;10.20;77.00
12704;DHT22;6416;52.182;7.650;2023-02-01T14:47:54;10.20;77.30
12704;DHT22;6416;52.182;7.650;2023-02-01T15:00:55;10.20;78.00
12704;DHT22;6416;52.182;7.650;2023-02-01T15:03:55;10.20;78.00
12704;DHT22;6416;52.182;7.650;2023-02-01T15:06:26;10.20;78.00
12704;DHT22;6416;52.182;7.650;2023-02-01T15:08:55;10.20;78.10
12704;DHT22;6416;52.182;7.650;2023-02-01T15:11:22;10.20;78.20
12704;DHT22;6416;52.182;7.650;2023-02-01T15:13:50;10.20;78.40
12704;DHT22;6416;52.182;7.650;2023-02-01T15:16:17;10.30;78.50
12704;DHT22;6416;52.182;7.650;2023-02-01T15:18:42;10.30;78.50
12704;DHT22;6416;52.182;7.650;2023-02-01T15:21:20;10.20;78.50
12704;DHT22;6416;52.182;7.650;2023-02-01T15:23:46;10.30;78.20
12704;DHT22;6416;52.182;7.650;2023-02-01T15:26:23;10.30;78.50
12704;DHT22;6416;52.182;7.650;2023-02-01T15:28:49;10.30;78.50
12704;DHT22;6416;52.182;7.650;2023-02-01T15:31:14;10.30;78.50
12704;DHT22;6416;52.182;7.650;2023-02-01T15:33:40;10.30;78.40
12704;DHT22;6416;52.182;7.650;2023-02-01T15:36:20;10.40;78.30
12704;DHT22;6416;52.182;7.650;2023-02-01T15:38:46;10.40;78.30
12704;DHT22;6416;52.182;7.650;2023-02-01T15:41:20;10.40;78.10
12704;DHT22;6416;52.182;7.650;2023-02-01T15:44:04;10.40;78.00
12704;DHT22;6416;52.182;7.650;2023-02-01T15:46:41;10.40;77.60
12704;DHT22;6416;52.182;7.650;2023-02-01T15:49:26;10.40;78.00
12704;DHT22;6416;52.182;7.650;2023-02-01T15:51:53;10.40;77.60
12704;DHT22;6416;52.182;7.650;2023-02-01T15:54:24;10.30;77.90
12704;DHT22;6416;52.182;7.650;2023-02-01T15:56:53;10.30;77.70
12704;DHT22;6416;52.182;7.650;2023-02-01T15:59:21;10.30;77.60
12704;DHT22;6416;52.182;7.650;2023-02-01T16:01:47;10.30;77.50
12704;DHT22;6416;52.182;7.650;2023-02-01T16:04:25;10.20;77.30
12704;DHT22;6416;52.182;7.650;2023-02-01T16:06:52;10.20;77.00
12704;DHT22;6416;52.182;7.650;2023-02-01T16:09:39;10.10;77.10
12704;DHT22;6416;52.182;7.650;2023-02-01T16:12:26;10.10;77.20
12704;DHT22;6416;52.182;7.650;2023-02-01T16:14:53;10.10;77.00
12704;DHT22;6416;52.182;7.650;2023-02-01T16:17:18;10.10;77.40
12704;DHT22;6416;52.182;7.650;2023-02-01T16:19:44;10.10;77.50
12704;DHT22;6416;52.182;7.650;2023-02-01T16:22:09;10.10;77.50
12704;DHT22;6416;52.182;7.650;2023-02-01T16:24:35;10.00;77.30
12704;DHT22;6416;52.182;7.650;2023-02-01T16:27:00;10.00;77.00
12704;DHT22;6416;52.182;7.650;2023-02-01T16:29:26;9.90;77.90
12704;DHT22;6416;52.182;7.650;2023-02-01T16:31:52;9.90;77.90
12704;DHT22;6416;52.182;7.650;2023-02-01T16:34:17;9.80;77.80
12704;DHT22;6416;52.182;7.650;2023-02-01T16:36:44;9.80;77.90
12704;DHT22;6416;52.182;7.650;2023-02-01T16:39:12;9.70;77.80
12704;DHT22;6416;52.182;7.650;2023-02-01T16:41:38;9.70;77.90
12704;DHT22;6416;52.182;7.650;2023-02-01T16:44:04;9.70;78.00
12704;DHT22;6416;52.182;7.650;2023-02-01T16:46:33;9.60;77.90
12704;DHT22;6416;52.182;7.650;2023-02-01T16:49:00;9.60;78.00
12704;DHT22;6416;52.182;7.650;2023-02-01T16:51:28;9.50;77.90
12704;DHT22;6416;52.182;7.650;2023-02-01T16:53:55;9.50;78.20
12704;DHT22;6416;52.182;7.650;2023-02-01T16:56:21;9.50;78.30
12704;DHT22;6416;52.182;7.650;2023-02-01T16:58:50;9.50;78.30
12704;DHT22;6416;52.182;7.650;2023-02-01T17:01:18;9.50;78.30
12704;DHT22;6416;52.182;7.650;2023-02-01T17:03:43;9.50;78.30
12704;DHT22;6416;52.182;7.650;2023-02-01T17:06:11;9.40;78.30
12704;DHT22;6416;52.182;7.650;2023-02-01T17:08:50;9.40;78.40
12704;DHT22;6416;52.182;7.650;2023-02-01T17:11:16;9.40;78.40
12704;DHT22;6416;52.182;7.650;2023-02-01T17:13:41;9.40;78.50
12704;DHT22;6416;52.182;7.650;2023-02-01T17:16:21;9.40;78.50
12704;DHT22;6416;52.182;7.650;2023-02-01T17:18:57;9.40;78.40
12704;DHT22;6416;52.182;7.650;2023-02-01T17:21:24;9.30;78.40
12704;DHT22;6416;52.182;7.650;2023-02-01T17:23:50;9.40;78.90
12704;DHT22;6416;52.182;7.650;2023-02-01T17:26:16;9.30;79.00
12704;DHT22;6416;52.182;7.650;2023-02-01T17:28:41;9.40;79.10
12704;DHT22;6416;52.182;7.650;2023-02-01T17:31:13;9.40;79.10
12704;DHT22;6416;52.182;7.650;2023-02-01T17:33:39;9.40;79.10
12704;DHT22;6416;52.182;7.650;2023-02-01T17:36:05;9.40;79.10
12704;DHT22;6416;52.182;7.650;2023-02-01T17:38:30;9.40;79.10
12704;DHT22;6416;52.182;7.650;2023-02-01T17:40:56;9.40;79.10
12704;DHT22;6416;52.182;7.650;2023-02-01T17:43:24;9.50;79.00
12704;DHT22;6416;52.182;7.650;2023-02-01T17:46:09;9.50;79.00
12704;DHT22;6416;52.182;7.650;2023-02-01T17:48:34;9.50;79.00
12704;DHT22;6416;52.182;7.650;2023-02-01T17:51:00;9.50;78.90
12704;DHT22;6416;52.182;7.650;2023-02-01T17:53:27;9.50;78.80
12704;DHT22;6416;52.182;7.650;2023-02-01T17:55:53;9.50;78.90
12704;DHT22;6416;52.182;7.650;2023-02-01T17:58:19;9.50;79.10
12704;DHT22;6416;52.182;7.650;2023-02-01T18:00:46;9.50;79.10
12704;DHT22;6416;52.182;7.650;2023-02-01T18:03:29;9.50;79.10
12704;DHT22;6416;52.182;7.650;2023-02-01T18:05:56;9.60;78.90
12704;DHT22;6416;52.182;7.650;2023-02-01T18:08:27;9.60;79.10
12704;DHT22;6416;52.182;7.650;2023-02-01T18:10:58;9.60;79.00
12704;DHT22;6416;52.182;7.650;2023-02-01T18:13:24;9.60;78.60
12704;DHT22;6416;52.182;7.650;2023-02-01T18:15:49;9.60;79.40
12704;DHT22;6416;52.182;7.650;2023-02-01T18:18:15;9.60;79.50
12704;DHT22;6416;52.182;7.650;2023-02-01T18:20:42;9.60;78.60
12704;DHT22;6416;52.182;7.650;2023-02-01T18:23:19;9.60;78.50
12704;DHT22;6416;52.182;7.650;2023-02-01T18:25:46;9.60;78.20
12704;DHT22;6416;52.182;7.650;2023-02-01T18:28:15;9.60;78.60
12704;DHT22;6416;52.182;7.650;2023-02-01T18:30:41;9.60;78.60
12704;DHT22;6416;52.182;7.650;2023-02-01T18:33:10;9.60;78.70
12704;DHT22;6416;52.182;7.650;2023-02-01T18:35:36;9.60;78.70
12704;DHT22;6416;52.182;7.650;2023-02-01T18:38:01;9.60;78.80
12704;DHT22;6416;52.182;7.650;2023-02-01T18:40:35;9.70;79.00